Time;durP1;ratioP1;P1;durP2;ratioP2;P2;SDS_P1;SDS_P2;PMS_P1;PMS_P2;Temp;Humidity;BMP_temperature;BMP_pressure;BME280_temperature;BME280_humidity;BME280_pressure;Samples;Min_cycle;Max_cycle;Signal;HPM_P1;HPM_P2
2023/04/16 00:00:30;;;;;;;14.40;10.73;;;11.40;99.90;;;;;;5057969;28;20539;-58
2023/04/16 00:02:56;;;;;;;14.50;11.20;;;11.40;99.90;;;;;;5057991;28;20468;-58
2023/04/16 00:05:24;;;;;;;15.37;11.60;;;11.50;99.90;;;;;;5057616;28;20448;-56
2023/04/16 00:07:51;;;;;;;17.83;11.00;;;11.40;99.90;;;;;;5057687;28;20432;-61
2023/04/16 00:10:18;;;;;;;16.80;11.53;;;11.50;99.90;;;;;;5057867;28;20420;-58
2023/04/16 00:12:45;;;;;;;16.33;10.80;;;11.40;99.90;;;;;;5057582;28;20772;-62
2023/04/16 00:15:14;;;;;;;21.40;13.33;;;11.40;99.90;;;;;;5057461;28;20435;-61
2023/04/16 00:17:40;;;;;;;14.23;10.93;;;11.50;99.90;;;;;;5057432;28;20467;-59
2023/04/16 00:20:10;;;;;;;17.03;11.57;;;11.40;99.90;;;;;;5057248;28;20448;-58
2023/04/16 00:22:37;;;;;;;20.27;13.00;;;11.50;99.90;;;;;;5057285;28;20459;-62
2023/04/16 00:25:04;;;;;;;18.63;12.17;;;11.50;99.90;;;;;;5056685;28;20464;-62
2023/04/16 00:27:31;;;;;;;18.10;12.20;;;11.50;99.90;;;;;;5056651;28;20452;-64
2023/04/16 00:29:58;;;;;;;18.10;12.00;;;11.50;99.90;;;;;;5056982;28;20444;-56
2023/04/16 00:32:26;;;;;;;18.50;11.77;;;11.50;99.90;;;;;;5057136;28;20440;-60
2023/04/16 00:34:53;;;;;;;18.43;11.03;;;11.50;99.90;;;;;;5057271;28;20452;-63
2023/04/16 00:37:20;;;;;;;17.37;11.90;;;11.50;99.90;;;;;;5057798;28;20440;-60
2023/04/16 00:39:47;;;;;;;16.10;11.80;;;11.50;99.90;;;;;;5057677;28;20436;-58
2023/04/16 00:42:14;;;;;;;18.67;12.20;;;11.50;99.90;;;;;;5057298;28;20469;-59
2023/04/16 00:44:41;;;;;;;15.70;12.43;;;11.50;99.90;;;;;;5057347;28;20494;-60
2023/04/16 00:47:08;;;;;;;15.63;11.43;;;11.50;99.90;;;;;;5057519;28;20455;-59
2023/04/16 00:49:37;;;;;;;22.47;12.70;;;11.50;99.90;;;;;;5057434;28;20468;-60
2023/04/16 00:52:04;;;;;;;17.93;11.83;;;11.50;99.90;;;;;;5057602;28;20448;-58
2023/04/16 00:54:32;;;;;;;19.20;11.77;;;11.50;99.90;;;;;;5057220;28;20459;-60
2023/04/16 00:57:00;;;;;;;17.57;11.60;;;11.50;99.90;;;;;;5057575;28;20432;-55
2023/04/16 00:59:27;;;;;;;16.77;12.53;;;11.50;99.90;;;;;;5056822;28;20444;-58
2023/04/16 01:01:54;;;;;;;17.50;11.33;;;11.50;99.90;;;;;;5057070;28;20421;-58
2023/04/16 01:04:21;;;;;;;20.60;12.77;;;11.40;99.90;;;;;;5056781;28;20460;-55
2023/04/16 01:06:49;;;;;;;17.37;12.30;;;11.40;99.90;;;;;;5057077;28;20467;-59
2023/04/16 01:09:17;;;;;;;18.97;12.53;;;11.50;99.90;;;;;;5056851;28;20462;-57
2023/04/16 01:11:44;;;;;;;19.83;12.83;;;11.50;99.90;;;;;;5056927;28;20440;-53
2023/04/16 01:14:11;;;;;;;16.17;10.50;;;11.50;99.90;;;;;;5056455;28;20448;-54
2023/04/16 01:16:38;;;;;;;16.83;11.40;;;11.40;99.90;;;;;;5056698;28;20436;-57
2023/04/16 01:19:04;;;;;;;16.70;12.53;;;11.50;99.90;;;;;;5056612;28;20484;-59
2023/04/16 01:21:33;;;;;;;21.23;14.07;;;11.50;99.90;;;;;;5056487;28;20459;-60
2023/04/16 01:24:03;;;;;;;18.80;12.20;;;11.50;99.90;;;;;;5056783;28;20499;-56
2023/04/16 01:26:30;;;;;;;19.03;12.13;;;11.50;99.90;;;;;;5056585;28;20484;-60
2023/04/16 01:28:57;;;;;;;18.83;13.30;;;11.50;99.90;;;;;;5056315;28;20443;-61
2023/04/16 01:31:23;;;;;;;20.67;13.77;;;11.50;99.90;;;;;;5056041;28;20476;-60
2023/04/16 01:33:50;;;;;;;16.40;12.10;;;11.50;99.90;;;;;;5055982;28;20420;-62
2023/04/16 01:36:17;;;;;;;19.70;12.20;;;11.50;99.90;;;;;;5057487;28;20955;-61
2023/04/16 01:38:45;;;;;;;19.07;12.77;;;11.50;99.90;;;;;;5059775;28;20420;-59
2023/04/16 01:41:12;;;;;;;18.00;12.70;;;11.50;99.90;;;;;;5059941;28;20432;-61
2023/04/16 01:43:40;;;;;;;18.10;12.70;;;11.50;99.90;;;;;;5059445;28;20501;-60
2023/04/16 01:46:13;;;;;;;21.30;14.33;;;11.50;99.90;;;;;;5059963;28;20428;-61
2023/04/16 01:48:40;;;;;;;20.10;13.87;;;11.50;99.90;;;;;;5060129;28;20420;-61
2023/04/16 01:51:08;;;;;;;26.80;13.87;;;11.40;99.90;;;;;;5060078;28;20464;-60
2023/04/16 01:53:34;;;;;;;19.40;14.13;;;11.40;99.90;;;;;;5059644;28;20440;-58
2023/04/16 01:56:03;;;;;;;19.73;12.37;;;11.40;99.90;;;;;;5059658;28;20499;-60
2023/04/16 01:58:31;;;;;;;20.57;13.20;;;11.50;99.90;;;;;;5059349;28;20475;-61
2023/04/16 02:01:01;;;;;;;18.30;13.20;;;11.50;99.90;;;;;;5058977;28;20439;-59
2023/04/16 02:03:28;;;;;;;21.30;13.00;;;11.40;99.90;;;;;;5059175;28;20467;-61
2023/04/16 02:05:54;;;;;;;16.27;12.37;;;11.40;99.90;;;;;;5059721;28;20440;-61
2023/04/16 02:08:21;;;;;;;20.23;13.00;;;11.40;99.90;;;;;;5059226;28;20472;-60
2023/04/16 02:10:50;;;;;;;17.00;11.57;;;11.40;99.90;;;;;;5059354;28;20444;-60
2023/04/16 02:13:18;;;;;;;22.87;14.20;;;11.40;99.90;;;;;;5059222;28;20502;-60
2023/04/16 02:15:47;;;;;;;16.97;12.57;;;11.40;99.90;;;;;;5059296;28;20409;-61
2023/04/16 02:18:14;;;;;;;17.03;12.50;;;11.40;99.90;;;;;;5059478;28;20476;-61
2023/04/16 02:20:41;;;;;;;21.43;15.40;;;11.40;99.90;;;;;;5059001;28;20503;-61
2023/04/16 02:23:09;;;;;;;18.03;12.10;;;11.30;99.90;;;;;;5058919;28;20516;-62
2023/04/16 02:25:40;;;;;;;22.37;12.00;;;11.40;99.90;;;;;;5059141;28;20470;-61
2023/04/16 02:28:07;;;;;;;18.67;12.67;;;11.40;99.90;;;;;;5059319;28;20444;-60
2023/04/16 02:30:36;;;;;;;20.83;13.30;;;11.40;99.90;;;;;;5059131;28;20424;-59
2023/04/16 02:33:04;;;;;;;18.83;12.97;;;11.40;99.90;;;;;;5059138;28;20558;-61
2023/04/16 02:35:32;;;;;;;18.57;13.23;;;11.30;99.90;;;;;;5059221;28;20448;-60
2023/04/16 02:37:59;;;;;;;20.17;12.47;;;11.30;99.90;;;;;;5058154;28;20544;-61
2023/04/16 02:40:26;;;;;;;21.13;13.57;;;11.30;99.90;;;;;;5058833;28;20432;-62
2023/04/16 02:42:53;;;;;;;14.90;11.90;;;11.30;99.90;;;;;;5058212;28;20467;-62
2023/04/16 02:45:20;;;;;;;21.67;14.33;;;11.30;99.90;;;;;;5058223;28;20820;-61
2023/04/16 02:47:49;;;;;;;19.70;12.60;;;11.30;99.90;;;;;;5057826;28;20459;-60
2023/04/16 02:50:16;;;;;;;19.70;12.10;;;11.30;99.90;;;;;;5057852;28;20456;-61
2023/04/16 02:52:43;;;;;;;19.20;12.27;;;11.30;99.90;;;;;;5058705;28;20479;-61
2023/04/16 02:55:11;;;;;;;19.00;13.00;;;11.30;99.90;;;;;;5058688;28;20460;-61
2023/04/16 02:57:38;;;;;;;19.47;13.00;;;11.30;99.90;;;;;;5058049;28;20479;-59
2023/04/16 03:00:05;;;;;;;16.93;12.47;;;11.30;99.90;;;;;;5058400;28;20451;-62
2023/04/16 03:02:32;;;;;;;20.07;13.27;;;11.20;99.90;;;;;;5058249;28;20464;-60
2023/04/16 03:05:00;;;;;;;25.10;14.53;;;11.20;99.90;;;;;;5057766;28;20468;-61
2023/04/16 03:07:27;;;;;;;20.60;15.20;;;11.20;99.90;;;;;;5057917;28;20434;-58
2023/04/16 03:09:54;;;;;;;17.50;12.67;;;11.20;99.90;;;;;;5057710;28;20956;-62
2023/04/16 03:12:21;;;;;;;20.33;11.87;;;11.10;99.90;;;;;;5057527;28;20443;-61
2023/04/16 03:14:50;;;;;;;21.07;14.90;;;11.10;99.90;;;;;;5057873;28;20456;-61
2023/04/16 03:17:16;;;;;;;18.73;13.20;;;11.10;99.90;;;;;;5057967;28;20444;-59
2023/04/16 03:19:43;;;;;;;21.50;13.77;;;11.10;99.90;;;;;;5058226;28;20436;-59
2023/04/16 03:22:12;;;;;;;24.53;14.37;;;11.10;99.90;;;;;;5058515;28;20464;-59
2023/04/16 03:24:38;;;;;;;17.93;12.77;;;11.10;99.90;;;;;;5057903;28;20476;-60
2023/04/16 03:27:05;;;;;;;23.07;14.57;;;11.10;99.90;;;;;;5058156;28;20506;-56
2023/04/16 03:29:32;;;;;;;23.53;15.00;;;11.10;99.90;;;;;;5057702;28;20440;-62
2023/04/16 03:31:59;;;;;;;26.53;16.13;;;11.10;99.90;;;;;;5058247;28;20424;-57
2023/04/16 03:34:26;;;;;;;25.00;14.73;;;11.10;99.90;;;;;;5057747;28;20448;-61
2023/04/16 03:36:53;;;;;;;21.90;15.40;;;11.00;99.90;;;;;;5057604;28;20435;-62
2023/04/16 03:39:21;;;;;;;26.73;16.23;;;11.00;99.90;;;;;;5057631;28;20464;-61
2023/04/16 03:41:48;;;;;;;24.20;15.43;;;10.90;99.90;;;;;;5057659;28;20428;-60
2023/04/16 03:44:15;;;;;;;25.67;16.30;;;10.90;99.90;;;;;;5057770;28;20463;-62
2023/04/16 03:46:42;;;;;;;26.63;14.93;;;10.80;99.90;;;;;;5057733;28;20508;-62
2023/04/16 03:49:08;;;;;;;29.70;15.90;;;10.90;99.90;;;;;;5057680;28;20432;-62
2023/04/16 03:51:35;;;;;;;29.17;14.93;;;10.80;99.90;;;;;;5057261;28;20483;-61
2023/04/16 03:54:02;;;;;;;24.63;15.07;;;10.80;99.90;;;;;;5057292;28;20448;-60
2023/04/16 03:56:30;;;;;;;24.60;15.20;;;10.80;99.90;;;;;;5057187;28;20451;-62
2023/04/16 03:58:57;;;;;;;25.37;15.57;;;10.80;99.90;;;;;;5057547;28;20452;-59
2023/04/16 04:01:24;;;;;;;22.77;14.40;;;10.80;99.90;;;;;;5056854;28;20425;-60
2023/04/16 04:03:51;;;;;;;30.90;15.13;;;10.80;99.90;;;;;;5056603;28;20452;-61
2023/04/16 04:06:18;;;;;;;29.03;16.43;;;10.70;99.90;;;;;;5056507;28;20463;-60
2023/04/16 04:08:44;;;;;;;27.03;16.27;;;10.70;99.90;;;;;;5056581;28;20479;-61
2023/04/16 04:11:11;;;;;;;31.27;15.40;;;10.70;99.90;;;;;;5056338;28;20471;-59
2023/04/16 04:13:39;;;;;;;25.13;15.90;;;10.70;99.90;;;;;;5056667;28;20444;-60
2023/04/16 04:16:07;;;;;;;25.30;15.80;;;10.70;99.90;;;;;;5056586;28;20880;-58
2023/04/16 04:18:34;;;;;;;25.30;17.07;;;10.70;99.90;;;;;;5056579;28;20413;-63
2023/04/16 04:21:05;;;;;;;26.70;15.23;;;10.70;99.90;;;;;;5056760;28;20444;-60
2023/04/16 04:23:32;;;;;;;28.73;15.87;;;10.70;99.90;;;;;;5056532;28;20456;-61
2023/04/16 04:26:02;;;;;;;25.03;15.90;;;10.70;99.90;;;;;;5056417;28;20484;-60
2023/04/16 04:28:29;;;;;;;25.23;13.43;;;10.70;99.90;;;;;;5056579;28;20503;-62
2023/04/16 04:30:57;;;;;;;23.53;15.40;;;10.70;99.90;;;;;;5056457;28;20436;-62
2023/04/16 04:33:24;;;;;;;22.77;14.90;;;10.70;99.90;;;;;;5056072;28;20427;-61
2023/04/16 04:35:51;;;;;;;23.77;14.50;;;10.70;99.90;;;;;;5056384;28;20436;-62
2023/04/16 04:38:20;;;;;;;23.30;14.80;;;10.80;99.90;;;;;;5056190;28;20448;-61
2023/04/16 04:40:46;;;;;;;25.57;16.27;;;10.80;99.90;;;;;;5056369;28;20471;-58
2023/04/16 04:43:13;;;;;;;22.00;15.03;;;10.80;99.90;;;;;;5056251;28;20451;-61
2023/04/16 04:45:40;;;;;;;23.70;13.40;;;10.80;99.90;;;;;;5055815;28;20452;-62
2023/04/16 04:48:09;;;;;;;25.37;15.70;;;10.80;99.90;;;;;;5055838;28;20451;-61
2023/04/16 04:50:36;;;;;;;20.83;14.63;;;10.80;99.90;;;;;;5056278;28;20444;-61
2023/04/16 04:53:08;;;;;;;26.87;16.90;;;10.80;99.90;;;;;;5055906;28;20489;-61
2023/04/16 04:55:35;;;;;;;26.80;15.47;;;10.70;99.90;;;;;;5056265;28;20432;-60
2023/04/16 04:58:03;;;;;;;27.63;16.13;;;10.70;99.90;;;;;;5056426;28;20443;-62
2023/04/16 05:00:30;;;;;;;25.97;14.40;;;10.70;99.90;;;;;;5055998;28;20496;-61
2023/04/16 05:02:57;;;;;;;27.47;17.27;;;10.70;99.90;;;;;;5055653;28;20459;-62
2023/04/16 05:05:25;;;;;;;24.13;14.00;;;10.70;99.90;;;;;;5055994;28;20483;-60
2023/04/16 05:07:52;;;;;;;23.60;13.87;;;10.80;99.90;;;;;;5055717;28;20444;-62
2023/04/16 05:10:18;;;;;;;22.97;14.40;;;10.80;99.90;;;;;;5057655;28;20444;-59
2023/04/16 05:12:47;;;;;;;24.40;14.80;;;10.70;99.90;;;;;;5062729;28;20905;-61
2023/04/16 05:15:13;;;;;;;23.40;13.43;;;10.70;99.90;;;;;;5062769;28;20443;-62
2023/04/16 05:17:41;;;;;;;22.17;14.90;;;10.70;99.90;;;;;;5062865;28;20468;-57
2023/04/16 05:20:09;;;;;;;28.83;14.67;;;10.70;99.90;;;;;;5063118;28;20458;-60
2023/04/16 05:22:37;;;;;;;26.23;15.60;;;10.70;99.90;;;;;;5063142;28;20432;-62
2023/04/16 05:25:05;;;;;;;25.83;15.87;;;10.70;99.90;;;;;;5062784;28;20488;-62
2023/04/16 05:27:31;;;;;;;23.03;14.40;;;10.70;99.90;;;;;;5062214;28;20451;-61
2023/04/16 05:29:58;;;;;;;26.00;15.27;;;10.70;99.90;;;;;;5063193;28;20470;-55
2023/04/16 05:32:26;;;;;;;29.53;16.00;;;10.70;99.90;;;;;;5063217;28;20478;-60
2023/04/16 05:34:53;;;;;;;24.80;14.33;;;10.70;99.90;;;;;;5062959;28;20439;-60
2023/04/16 05:37:20;;;;;;;22.40;14.53;;;10.70;99.90;;;;;;5062157;28;20436;-62
2023/04/16 05:39:48;;;;;;;27.13;14.80;;;10.70;99.90;;;;;;5062346;28;20468;-59
2023/04/16 05:42:15;;;;;;;22.90;14.10;;;10.70;99.90;;;;;;5062834;28;20487;-59
2023/04/16 05:44:42;;;;;;;20.13;12.50;;;10.70;99.90;;;;;;5062488;28;20468;-61
2023/04/16 05:47:09;;;;;;;27.10;13.07;;;10.70;99.90;;;;;;5062447;28;20443;-60
2023/04/16 05:49:36;;;;;;;28.50;14.73;;;10.70;99.90;;;;;;5062478;28;20454;-59
2023/04/16 05:52:03;;;;;;;23.53;13.87;;;10.70;99.90;;;;;;5062768;28;20450;-59
2023/04/16 05:54:30;;;;;;;24.40;14.37;;;10.70;99.90;;;;;;5062604;28;20468;-61
2023/04/16 05:56:58;;;;;;;25.87;14.00;;;10.70;99.90;;;;;;5062941;28;20464;-62
2023/04/16 05:59:25;;;;;;;20.80;11.93;;;10.70;99.90;;;;;;5062624;28;20447;-60
2023/04/16 06:01:52;;;;;;;20.00;12.63;;;10.80;99.90;;;;;;5062898;28;20451;-58
2023/04/16 06:04:18;;;;;;;21.83;13.63;;;10.80;99.90;;;;;;5062862;28;20455;-55
2023/04/16 06:06:45;;;;;;;22.97;11.97;;;10.80;99.90;;;;;;5062469;28;20488;-59
2023/04/16 06:09:12;;;;;;;22.00;12.70;;;10.80;99.90;;;;;;5062373;28;20444;-60
2023/04/16 06:11:39;;;;;;;22.93;13.87;;;10.80;99.90;;;;;;5062307;28;20444;-60
2023/04/16 06:14:07;;;;;;;21.23;11.47;;;10.90;99.90;;;;;;5062032;28;20444;-62
2023/04/16 06:16:34;;;;;;;22.47;12.93;;;10.90;99.90;;;;;;5062173;28;20432;-60
2023/04/16 06:19:01;;;;;;;23.27;13.30;;;10.90;99.90;;;;;;5061591;28;20494;-60
2023/04/16 06:21:28;;;;;;;21.87;13.40;;;10.90;99.90;;;;;;5061275;28;20432;-60
2023/04/16 06:23:55;;;;;;;27.77;11.50;;;10.90;99.90;;;;;;5058178;28;20424;-62
2023/04/16 06:26:22;;;;;;;19.30;11.13;;;10.90;99.90;;;;;;5058505;28;20511;-62
2023/04/16 06:28:49;;;;;;;26.53;11.90;;;10.90;99.90;;;;;;5058108;28;20452;-60
2023/04/16 06:31:17;;;;;;;22.40;12.30;;;10.90;99.90;;;;;;5058685;28;20474;-58
2023/04/16 06:33:44;;;;;;;19.53;12.20;;;10.90;99.90;;;;;;5058577;28;20441;-60
2023/04/16 06:36:11;;;;;;;20.00;11.87;;;10.90;99.90;;;;;;5059201;28;20436;-57
2023/04/16 06:38:38;;;;;;;26.23;13.87;;;11.00;99.90;;;;;;5058808;28;20435;-60
2023/04/16 06:41:05;;;;;;;21.30;12.33;;;11.00;99.90;;;;;;5058224;28;20455;-61
2023/04/16 06:43:33;;;;;;;19.70;11.80;;;11.00;99.90;;;;;;5058692;28;20440;-61
2023/04/16 06:46:00;;;;;;;21.10;14.63;;;11.00;99.90;;;;;;5058551;28;20495;-58
2023/04/16 06:48:28;;;;;;;20.77;12.90;;;11.00;99.90;;;;;;5058570;28;20459;-61
2023/04/16 06:50:56;;;;;;;20.03;12.10;;;11.10;99.90;;;;;;5058421;28;20444;-59
2023/04/16 06:53:23;;;;;;;23.03;12.30;;;11.10;99.90;;;;;;5058674;28;20495;-60
2023/04/16 06:55:50;;;;;;;29.00;13.53;;;11.10;99.90;;;;;;5058319;28;20536;-59
2023/04/16 06:58:17;;;;;;;22.23;12.00;;;11.10;99.90;;;;;;5058671;28;20428;-58
2023/04/16 07:00:43;;;;;;;22.80;11.30;;;11.10;99.90;;;;;;5058554;28;20439;-62
2023/04/16 07:03:15;;;;;;;19.17;12.83;;;11.20;99.90;;;;;;5058686;28;20440;-60
2023/04/16 07:05:44;;;;;;;20.53;11.40;;;11.20;99.90;;;;;;5059109;28;20491;-62
2023/04/16 07:08:11;;;;;;;20.63;11.53;;;11.20;99.90;;;;;;5058615;28;20492;-59
2023/04/16 07:10:39;;;;;;;18.60;12.40;;;11.20;99.90;;;;;;5057889;28;20460;-57
2023/04/16 07:13:08;;;;;;;16.93;11.80;;;11.30;99.90;;;;;;5057929;28;20447;-60
2023/04/16 07:15:35;;;;;;;23.60;13.10;;;11.30;99.90;;;;;;5058074;28;20468;-58
2023/04/16 07:18:02;;;;;;;18.57;11.43;;;11.30;99.90;;;;;;5057561;28;20456;-52
2023/04/16 07:20:29;;;;;;;21.57;11.10;;;11.30;99.90;;;;;;5057771;28;20452;-51
2023/04/16 07:22:58;;;;;;;23.43;12.43;;;11.30;99.90;;;;;;5057760;28;20440;-54
2023/04/16 07:25:25;;;;;;;21.53;11.73;;;11.30;99.90;;;;;;5057497;28;20520;-56
2023/04/16 07:27:52;;;;;;;21.60;12.30;;;11.30;99.90;;;;;;5057942;28;20443;-54
2023/04/16 07:30:19;;;;;;;18.80;13.47;;;11.40;99.90;;;;;;5057769;28;20455;-55
2023/04/16 07:32:46;;;;;;;17.17;12.27;;;11.40;99.90;;;;;;5057529;28;20503;-58
2023/04/16 07:35:13;;;;;;;20.63;11.63;;;11.40;99.90;;;;;;5057554;28;20447;-53
2023/04/16 07:37:40;;;;;;;17.40;10.57;;;11.40;99.90;;;;;;5057586;28;20429;-55
2023/04/16 07:40:09;;;;;;;22.60;12.67;;;11.40;99.90;;;;;;5057374;28;20451;-58
2023/04/16 07:42:36;;;;;;;20.30;11.00;;;11.40;99.90;;;;;;5057876;28;20456;-57
2023/04/16 07:45:04;;;;;;;18.00;11.20;;;11.40;99.90;;;;;;5057450;28;20468;-51
2023/04/16 07:47:30;;;;;;;16.27;10.30;;;11.40;99.90;;;;;;5057656;28;20436;-56
2023/04/16 07:49:57;;;;;;;21.37;9.23;;;11.40;99.90;;;;;;5057319;28;20444;-59
2023/04/16 07:52:25;;;;;;;20.97;12.00;;;11.40;99.90;;;;;;5056997;28;20436;-55
2023/04/16 07:54:52;;;;;;;15.30;9.80;;;11.40;99.90;;;;;;5057120;28;20448;-57
2023/04/16 07:57:22;;;;;;;17.63;11.30;;;11.40;99.90;;;;;;5056640;28;20511;-57
2023/04/16 07:59:49;;;;;;;24.37;10.40;;;11.40;99.90;;;;;;5057135;28;20439;-59
2023/04/16 08:02:16;;;;;;;15.47;10.37;;;11.40;99.90;;;;;;5057252;28;20436;-55
2023/04/16 08:04:43;;;;;;;16.23;11.20;;;11.40;99.90;;;;;;5057093;28;20408;-55
2023/04/16 08:07:10;;;;;;;15.93;10.53;;;11.40;99.90;;;;;;5056969;28;20512;-57
2023/04/16 08:09:47;;;;;;;13.77;9.80;;;11.40;99.90;;;;;;5056632;28;20559;-56
2023/04/16 08:12:15;;;;;;;19.67;10.83;;;11.40;99.90;;;;;;5056772;28;20539;-53
2023/04/16 08:14:43;;;;;;;18.30;11.33;;;11.50;99.90;;;;;;5057101;28;20449;-58
2023/04/16 08:17:10;;;;;;;15.00;9.53;;;11.50;99.90;;;;;;5056868;28;20428;-63
2023/04/16 08:19:37;;;;;;;17.53;10.30;;;11.50;99.90;;;;;;5056910;28;20425;-61
2023/04/16 08:22:04;;;;;;;18.40;11.43;;;11.50;99.90;;;;;;5056806;28;20479;-54
2023/04/16 08:24:31;;;;;;;19.53;11.23;;;11.50;99.90;;;;;;5056356;28;20456;-60
2023/04/16 08:26:58;;;;;;;19.03;11.20;;;11.40;99.90;;;;;;5056643;28;20471;-63
2023/04/16 08:29:26;;;;;;;20.10;11.50;;;11.40;99.90;;;;;;5056519;28;20444;-59
2023/04/16 08:31:54;;;;;;;19.90;10.53;;;11.40;99.90;;;;;;5056671;28;20467;-60
2023/04/16 08:34:21;;;;;;;15.27;10.10;;;11.30;99.90;;;;;;5056537;28;20437;-61
2023/04/16 08:36:48;;;;;;;13.57;9.23;;;11.30;99.90;;;;;;5056491;28;20440;-60
2023/04/16 08:39:15;;;;;;;18.57;10.30;;;11.20;99.90;;;;;;5056088;28;20444;-61
2023/04/16 08:41:45;;;;;;;16.83;10.70;;;11.20;99.90;;;;;;5056469;28;20440;-59
2023/04/16 08:44:19;;;;;;;19.27;10.23;;;11.20;99.90;;;;;;5056541;28;20498;-60
2023/04/16 08:46:47;;;;;;;20.57;10.80;;;11.20;99.90;;;;;;5056090;28;20448;-61
2023/04/16 08:49:17;;;;;;;18.67;11.30;;;11.20;99.90;;;;;;5056771;28;20515;-59
2023/04/16 08:51:50;;;;;;;16.30;10.53;;;11.20;99.90;;;;;;5056337;28;20408;-61
2023/04/16 08:54:24;;;;;;;14.70;9.67;;;11.30;99.90;;;;;;5056956;28;20425;-59
2023/04/16 08:56:51;;;;;;;16.87;10.07;;;11.30;99.90;;;;;;5056902;28;20440;-58
2023/04/16 08:59:19;;;;;;;16.83;9.97;;;11.30;99.90;;;;;;5056770;28;20444;-56
2023/04/16 09:01:47;;;;;;;16.67;10.60;;;11.40;99.90;;;;;;5056881;28;20499;-60
2023/04/16 09:04:16;;;;;;;17.17;10.20;;;11.40;99.90;;;;;;5056582;28;20428;-57
2023/04/16 09:06:44;;;;;;;18.23;10.57;;;11.40;99.90;;;;;;5056924;28;20491;-60
2023/04/16 09:09:12;;;;;;;17.10;11.30;;;11.40;99.90;;;;;;5056323;28;20433;-61
2023/04/16 09:11:39;;;;;;;19.33;11.50;;;11.40;99.90;;;;;;5056662;28;20424;-58
2023/04/16 09:14:09;;;;;;;21.07;9.77;;;11.40;99.90;;;;;;5056592;28;20455;-58
2023/04/16 09:16:37;;;;;;;24.40;10.87;;;11.40;99.90;;;;;;5056895;28;20409;-57
2023/04/16 09:19:03;;;;;;;24.10;12.00;;;11.40;99.90;;;;;;5056581;28;20468;-59
2023/04/16 09:21:32;;;;;;;18.37;11.30;;;11.30;99.90;;;;;;5056427;28;20448;-58
2023/04/16 09:24:00;;;;;;;21.70;12.17;;;11.30;99.90;;;;;;5056309;28;20475;-59
2023/04/16 09:26:27;;;;;;;23.37;11.20;;;11.40;99.90;;;;;;5056524;28;20484;-62
2023/04/16 09:28:54;;;;;;;19.13;11.47;;;11.30;99.90;;;;;;5056345;28;20456;-56
2023/04/16 09:31:21;;;;;;;14.97;9.67;;;11.40;99.90;;;;;;5056827;28;20445;-62
2023/04/16 09:34:02;;;;;;;18.30;11.13;;;11.40;99.90;;;;;;5055987;28;20505;-60
2023/04/16 09:36:30;;;;;;;19.30;11.10;;;11.50;99.90;;;;;;5056068;28;20408;-60
2023/04/16 09:38:58;;;;;;;16.07;10.20;;;11.60;99.90;;;;;;5056168;28;20440;-62
2023/04/16 09:41:27;;;;;;;13.83;9.53;;;11.70;99.90;;;;;;5056200;28;20472;-60
2023/04/16 09:43:56;;;;;;;19.10;11.07;;;11.70;99.90;;;;;;5055549;28;20432;-60
2023/04/16 09:46:23;;;;;;;15.47;10.30;;;11.80;99.90;;;;;;5056296;28;20527;-58
2023/04/16 09:48:50;;;;;;;16.03;10.10;;;11.90;99.90;;;;;;5056063;28;20424;-57
2023/04/16 09:51:17;;;;;;;17.10;10.10;;;12.00;99.90;;;;;;5055853;28;20441;-58
2023/04/16 09:53:44;;;;;;;16.87;10.87;;;12.00;99.90;;;;;;5055774;28;20429;-59
2023/04/16 09:56:13;;;;;;;12.80;9.30;;;12.00;99.90;;;;;;5056095;28;20455;-61
2023/04/16 09:58:40;;;;;;;18.33;10.57;;;11.90;99.90;;;;;;5060057;28;20460;-57
2023/04/16 10:01:08;;;;;;;15.53;10.37;;;11.90;99.90;;;;;;5059583;28;20480;-59
2023/04/16 10:03:36;;;;;;;25.20;13.23;;;11.90;99.90;;;;;;5059623;28;20813;-60
2023/04/16 10:06:09;;;;;;;16.17;11.20;;;11.90;99.90;;;;;;5059534;28;20487;-60
2023/04/16 10:08:36;;;;;;;22.43;11.73;;;11.90;99.90;;;;;;5059422;28;20443;-61
2023/04/16 10:11:03;;;;;;;15.93;11.10;;;11.90;99.90;;;;;;5059406;28;20424;-60
2023/04/16 10:13:32;;;;;;;19.83;10.97;;;11.90;99.90;;;;;;5059579;28;20436;-59
2023/04/16 10:15:59;;;;;;;18.67;11.07;;;11.90;99.90;;;;;;5059638;28;20459;-62
2023/04/16 10:18:27;;;;;;;20.40;12.07;;;11.90;99.90;;;;;;5059238;28;20444;-61
2023/04/16 10:20:54;;;;;;;20.30;11.20;;;11.90;99.90;;;;;;5059301;28;20520;-59
2023/04/16 10:23:21;;;;;;;15.00;10.03;;;12.00;99.90;;;;;;5059368;28;20435;-60
2023/04/16 10:25:49;;;;;;;15.13;10.33;;;11.90;99.90;;;;;;5059082;28;20455;-59
2023/04/16 10:28:16;;;;;;;17.83;11.03;;;12.00;99.90;;;;;;5058857;28;20432;-59
2023/04/16 10:30:51;;;;;;;22.03;12.40;;;12.00;99.90;;;;;;5059371;28;20433;-62
2023/04/16 10:33:23;;;;;;;17.77;11.43;;;12.00;99.90;;;;;;5059500;28;20443;-61
2023/04/16 10:35:51;;;;;;;16.50;10.87;;;12.00;99.90;;;;;;5059383;28;20424;-61
2023/04/16 10:38:28;;;;;;;16.23;10.37;;;12.00;99.90;;;;;;5059495;28;20467;-61
2023/04/16 10:41:03;;;;;;;20.10;11.90;;;12.00;99.90;;;;;;5059471;28;20434;-58
2023/04/16 10:43:32;;;;;;;22.33;12.70;;;12.00;99.90;;;;;;5059504;28;20462;-57
2023/04/16 10:46:18;;;;;;;18.43;12.20;;;12.00;99.90;;;;;;5059891;28;20437;-60
2023/04/16 10:48:45;;;;;;;22.57;13.00;;;12.10;99.90;;;;;;5060278;28;20455;-56
2023/04/16 10:51:24;;;;;;;26.53;13.30;;;12.20;99.90;;;;;;5059532;28;20436;-55
2023/04/16 10:53:53;;;;;;;20.80;12.07;;;12.20;99.90;;;;;;5058538;28;20492;-59
2023/04/16 10:56:23;;;;;;;23.00;12.87;;;12.30;99.90;;;;;;5058331;28;20427;-57
2023/04/16 10:58:52;;;;;;;17.90;12.07;;;12.30;99.90;;;;;;5058504;28;20440;-59
2023/04/16 11:01:30;;;;;;;19.17;12.13;;;12.30;99.90;;;;;;5058869;28;20444;-60
2023/04/16 11:03:59;;;;;;;20.70;13.93;;;12.50;99.90;;;;;;5058787;28;20435;-62
2023/04/16 11:06:26;;;;;;;26.80;15.23;;;12.50;99.90;;;;;;5058547;28;20480;-60
2023/04/16 11:08:54;;;;;;;22.87;13.17;;;12.50;99.90;;;;;;5057827;28;20468;-60
2023/04/16 11:11:21;;;;;;;24.40;15.10;;;12.50;99.90;;;;;;5058176;28;20448;-60
2023/04/16 11:13:48;;;;;;;18.13;12.27;;;12.50;99.90;;;;;;5058234;28;20455;-60
2023/04/16 11:16:16;;;;;;;16.73;11.87;;;12.50;99.90;;;;;;5058223;28;20448;-59
2023/04/16 11:18:45;;;;;;;20.10;13.00;;;12.50;99.90;;;;;;5058953;28;20455;-59
2023/04/16 11:21:13;;;;;;;23.23;12.23;;;12.50;99.90;;;;;;5059014;28;20436;-58
2023/04/16 11:23:47;;;;;;;18.20;11.17;;;12.50;99.90;;;;;;5058599;28;20440;-58
2023/04/16 11:26:25;;;;;;;20.07;14.07;;;12.50;99.90;;;;;;5058437;28;20463;-60
2023/04/16 11:28:53;;;;;;;16.60;11.93;;;12.50;99.90;;;;;;5058074;28;20464;-59
2023/04/16 11:31:20;;;;;;;17.73;11.20;;;12.50;99.90;;;;;;5058116;28;20447;-60
2023/04/16 11:33:48;;;;;;;15.77;11.97;;;12.70;99.90;;;;;;5057575;28;20464;-60
2023/04/16 11:36:15;;;;;;;15.57;10.77;;;12.80;99.90;;;;;;5057888;28;20451;-62
2023/04/16 11:38:42;;;;;;;17.20;11.80;;;12.90;99.90;;;;;;5057763;28;20480;-62
2023/04/16 11:41:10;;;;;;;16.43;10.17;;;13.00;99.90;;;;;;5057897;28;20447;-60
2023/04/16 11:43:37;;;;;;;17.77;12.07;;;13.00;99.90;;;;;;5057377;28;20470;-61
2023/04/16 11:46:05;;;;;;;17.40;11.67;;;13.10;99.90;;;;;;5057950;28;20417;-61
2023/04/16 11:48:50;;;;;;;16.17;11.83;;;13.10;99.90;;;;;;5056669;28;20432;-61
2023/04/16 11:51:17;;;;;;;15.07;10.93;;;13.00;99.90;;;;;;5054934;28;20433;-61
2023/04/16 11:53:51;;;;;;;18.20;11.03;;;12.90;99.90;;;;;;5055404;28;20452;-61
2023/04/16 11:56:27;;;;;;;16.33;10.93;;;12.80;99.90;;;;;;5054400;28;20471;-55
2023/04/16 11:59:10;;;;;;;14.50;11.10;;;12.80;99.90;;;;;;5054899;28;20743;-54
2023/04/16 12:01:38;;;;;;;15.80;11.40;;;12.80;99.90;;;;;;5054547;28;20452;-54
2023/04/16 12:04:07;;;;;;;17.73;11.53;;;12.70;99.90;;;;;;5053862;28;20471;-53
2023/04/16 12:06:34;;;;;;;18.13;11.47;;;12.80;99.90;;;;;;5053540;28;21028;-46
2023/04/16 12:09:21;;;;;;;22.90;12.00;;;12.80;99.90;;;;;;5053995;28;20893;-58
2023/04/16 12:11:48;;;;;;;18.07;11.57;;;12.80;99.90;;;;;;5054631;28;20468;-59
2023/04/16 12:14:15;;;;;;;16.80;11.67;;;12.80;99.90;;;;;;5053978;28;20450;-56
2023/04/16 12:16:43;;;;;;;17.60;11.40;;;12.80;99.90;;;;;;5054057;28;20441;-51
2023/04/16 12:19:13;;;;;;;14.23;11.00;;;12.90;99.90;;;;;;5054148;28;20483;-52
2023/04/16 12:21:41;;;;;;;12.23;10.03;;;13.00;99.90;;;;;;5054101;28;20549;-53
2023/04/16 12:24:09;;;;;;;13.83;10.93;;;13.00;99.90;;;;;;5055382;28;20475;-51
2023/04/16 12:26:38;;;;;;;12.37;9.50;;;13.00;99.90;;;;;;5055080;28;20487;-52
2023/04/16 12:29:16;;;;;;;13.47;10.83;;;12.90;99.90;;;;;;5054838;28;20467;-55
2023/04/16 12:31:43;;;;;;;16.53;11.40;;;12.80;99.90;;;;;;5055531;28;20443;-54